sensor_id;sensor_type;location;lat;lon;timestamp;P1;durP1;ratioP1;P2;durP2;ratioP2
19828;SDS011;10075;50.924;4.396;2023-04-24T00:00:15;27.03;;;13.83;;
19828;SDS011;10075;50.924;4.396;2023-04-24T00:02:43;21.03;;;13.70;;
19828;SDS011;10075;50.924;4.396;2023-04-24T00:05:12;25.80;;;13.90;;
19828;SDS011;10075;50.924;4.396;2023-04-24T00:07:41;24.10;;;13.53;;
19828;SDS011;10075;50.924;4.396;2023-04-24T00:10:09;21.70;;;13.57;;
19828;SDS011;10075;50.924;4.396;2023-04-24T00:12:37;24.93;;;14.07;;
19828;SDS011;10075;50.924;4.396;2023-04-24T00:15:04;27.00;;;13.83;;
19828;SDS011;10075;50.924;4.396;2023-04-24T00:17:32;26.37;;;13.93;;
19828;SDS011;10075;50.924;4.396;2023-04-24T00:19:59;22.80;;;13.83;;
19828;SDS011;10075;50.924;4.396;2023-04-24T00:22:29;22.13;;;14.10;;
19828;SDS011;10075;50.924;4.396;2023-04-24T00:24:58;24.23;;;12.87;;
19828;SDS011;10075;50.924;4.396;2023-04-24T00:27:25;22.00;;;12.73;;
19828;SDS011;10075;50.924;4.396;2023-04-24T00:29:52;22.50;;;13.67;;
19828;SDS011;10075;50.924;4.396;2023-04-24T00:32:19;24.00;;;13.60;;
19828;SDS011;10075;50.924;4.396;2023-04-24T00:34:46;25.33;;;14.10;;
19828;SDS011;10075;50.924;4.396;2023-04-24T00:37:13;19.63;;;13.87;;
19828;SDS011;10075;50.924;4.396;2023-04-24T00:39:40;20.47;;;13.57;;
19828;SDS011;10075;50.924;4.396;2023-04-24T00:42:09;22.13;;;12.20;;
19828;SDS011;10075;50.924;4.396;2023-04-24T00:44:36;24.93;;;14.10;;
19828;SDS011;10075;50.924;4.396;2023-04-24T00:47:03;22.07;;;13.83;;
19828;SDS011;10075;50.924;4.396;2023-04-24T00:49:30;21.53;;;13.73;;
19828;SDS011;10075;50.924;4.396;2023-04-24T00:51:57;20.80;;;12.97;;
19828;SDS011;10075;50.924;4.396;2023-04-24T00:54:24;21.47;;;12.93;;
19828;SDS011;10075;50.924;4.396;2023-04-24T00:56:51;21.83;;;13.23;;
19828;SDS011;10075;50.924;4.396;2023-04-24T00:59:20;22.20;;;14.83;;
19828;SDS011;10075;50.924;4.396;2023-04-24T01:01:47;24.13;;;12.87;;
19828;SDS011;10075;50.924;4.396;2023-04-24T01:04:14;19.97;;;13.63;;
19828;SDS011;10075;50.924;4.396;2023-04-24T01:06:43;23.30;;;13.97;;
19828;SDS011;10075;50.924;4.396;2023-04-24T01:09:11;20.30;;;14.10;;
19828;SDS011;10075;50.924;4.396;2023-04-24T01:11:39;24.93;;;13.40;;
19828;SDS011;10075;50.924;4.396;2023-04-24T01:14:08;22.67;;;15.23;;
19828;SDS011;10075;50.924;4.396;2023-04-24T01:16:37;24.37;;;14.17;;
19828;SDS011;10075;50.924;4.396;2023-04-24T01:19:05;21.73;;;13.63;;
19828;SDS011;10075;50.924;4.396;2023-04-24T01:21:33;22.07;;;13.93;;
19828;SDS011;10075;50.924;4.396;2023-04-24T01:24:04;23.63;;;14.47;;
19828;SDS011;10075;50.924;4.396;2023-04-24T01:26:32;18.53;;;13.13;;
19828;SDS011;10075;50.924;4.396;2023-04-24T01:28:59;27.33;;;14.73;;
19828;SDS011;10075;50.924;4.396;2023-04-24T01:31:26;23.07;;;13.80;;
19828;SDS011;10075;50.924;4.396;2023-04-24T01:33:53;25.37;;;14.73;;
19828;SDS011;10075;50.924;4.396;2023-04-24T01:36:22;25.70;;;13.43;;
19828;SDS011;10075;50.924;4.396;2023-04-24T01:38:50;21.77;;;14.47;;
19828;SDS011;10075;50.924;4.396;2023-04-24T01:41:19;21.03;;;13.93;;
19828;SDS011;10075;50.924;4.396;2023-04-24T01:43:46;22.63;;;13.90;;
19828;SDS011;10075;50.924;4.396;2023-04-24T01:46:14;19.63;;;12.87;;
19828;SDS011;10075;50.924;4.396;2023-04-24T01:48:41;22.70;;;13.40;;
19828;SDS011;10075;50.924;4.396;2023-04-24T01:51:08;23.03;;;14.00;;
19828;SDS011;10075;50.924;4.396;2023-04-24T01:53:35;20.97;;;12.33;;
19828;SDS011;10075;50.924;4.396;2023-04-24T01:56:02;15.57;;;11.47;;
19828;SDS011;10075;50.924;4.396;2023-04-24T01:58:31;23.07;;;11.43;;
19828;SDS011;10075;50.924;4.396;2023-04-24T02:00:59;14.57;;;10.77;;
19828;SDS011;10075;50.924;4.396;2023-04-24T02:03:26;14.27;;;9.67;;
19828;SDS011;10075;50.924;4.396;2023-04-24T02:05:53;16.40;;;10.03;;
19828;SDS011;10075;50.924;4.396;2023-04-24T02:08:20;16.57;;;11.03;;
19828;SDS011;10075;50.924;4.396;2023-04-24T02:10:47;15.57;;;10.53;;
19828;SDS011;10075;50.924;4.396;2023-04-24T02:13:14;16.97;;;12.20;;
19828;SDS011;10075;50.924;4.396;2023-04-24T02:15:42;16.87;;;10.80;;
19828;SDS011;10075;50.924;4.396;2023-04-24T02:18:09;23.77;;;12.77;;
19828;SDS011;10075;50.924;4.396;2023-04-24T02:20:37;16.97;;;11.27;;
19828;SDS011;10075;50.924;4.396;2023-04-24T02:23:05;14.77;;;11.50;;
19828;SDS011;10075;50.924;4.396;2023-04-24T02:25:33;14.77;;;10.70;;
19828;SDS011;10075;50.924;4.396;2023-04-24T02:28:00;16.93;;;11.03;;
19828;SDS011;10075;50.924;4.396;2023-04-24T02:30:27;20.50;;;11.47;;
19828;SDS011;10075;50.924;4.396;2023-04-24T02:32:56;19.63;;;11.77;;
19828;SDS011;10075;50.924;4.396;2023-04-24T02:35:22;18.83;;;10.97;;
19828;SDS011;10075;50.924;4.396;2023-04-24T02:37:49;16.57;;;11.90;;
19828;SDS011;10075;50.924;4.396;2023-04-24T02:40:16;20.33;;;11.83;;
19828;SDS011;10075;50.924;4.396;2023-04-24T02:42:44;19.47;;;11.47;;
19828;SDS011;10075;50.924;4.396;2023-04-24T02:45:11;21.13;;;11.83;;
19828;SDS011;10075;50.924;4.396;2023-04-24T02:47:38;20.23;;;13.27;;
19828;SDS011;10075;50.924;4.396;2023-04-24T02:50:07;20.93;;;12.60;;
19828;SDS011;10075;50.924;4.396;2023-04-24T02:52:34;14.70;;;11.67;;
19828;SDS011;10075;50.924;4.396;2023-04-24T02:55:01;23.40;;;13.67;;
19828;SDS011;10075;50.924;4.396;2023-04-24T02:57:28;20.33;;;13.20;;
19828;SDS011;10075;50.924;4.396;2023-04-24T02:59:55;21.97;;;13.30;;
19828;SDS011;10075;50.924;4.396;2023-04-24T03:02:22;19.03;;;13.00;;
19828;SDS011;10075;50.924;4.396;2023-04-24T03:04:49;17.90;;;12.57;;
19828;SDS011;10075;50.924;4.396;2023-04-24T03:07:17;20.70;;;12.57;;
19828;SDS011;10075;50.924;4.396;2023-04-24T03:09:45;18.73;;;12.60;;
19828;SDS011;10075;50.924;4.396;2023-04-24T03:12:12;23.23;;;13.23;;
19828;SDS011;10075;50.924;4.396;2023-04-24T03:14:39;20.60;;;13.50;;
19828;SDS011;10075;50.924;4.396;2023-04-24T03:17:06;19.77;;;12.90;;
19828;SDS011;10075;50.924;4.396;2023-04-24T03:19:33;18.67;;;12.77;;
19828;SDS011;10075;50.924;4.396;2023-04-24T03:22:01;20.87;;;13.40;;
19828;SDS011;10075;50.924;4.396;2023-04-24T03:24:30;25.07;;;15.30;;
19828;SDS011;10075;50.924;4.396;2023-04-24T03:26:57;18.17;;;13.47;;
19828;SDS011;10075;50.924;4.396;2023-04-24T03:29:24;17.20;;;11.77;;
19828;SDS011;10075;50.924;4.396;2023-04-24T03:31:51;16.73;;;11.20;;
19828;SDS011;10075;50.924;4.396;2023-04-24T03:34:18;17.17;;;12.93;;
19828;SDS011;10075;50.924;4.396;2023-04-24T03:36:45;21.87;;;13.57;;
19828;SDS011;10075;50.924;4.396;2023-04-24T03:39:13;20.57;;;12.17;;
19828;SDS011;10075;50.924;4.396;2023-04-24T03:41:42;20.83;;;11.90;;
19828;SDS011;10075;50.924;4.396;2023-04-24T03:44:09;19.67;;;11.83;;
19828;SDS011;10075;50.924;4.396;2023-04-24T03:46:36;17.40;;;11.50;;
19828;SDS011;10075;50.924;4.396;2023-04-24T03:49:03;21.17;;;11.67;;
19828;SDS011;10075;50.924;4.396;2023-04-24T03:51:30;18.80;;;11.67;;
19828;SDS011;10075;50.924;4.396;2023-04-24T03:53:57;17.63;;;12.40;;
19828;SDS011;10075;50.924;4.396;2023-04-24T03:56:24;20.17;;;12.47;;
19828;SDS011;10075;50.924;4.396;2023-04-24T03:58:52;13.00;;;8.93;;
19828;SDS011;10075;50.924;4.396;2023-04-24T04:01:19;17.70;;;10.27;;
19828;SDS011;10075;50.924;4.396;2023-04-24T04:03:46;18.20;;;12.10;;
19828;SDS011;10075;50.924;4.396;2023-04-24T04:06:13;13.00;;;9.73;;
19828;SDS011;10075;50.924;4.396;2023-04-24T04:08:40;16.57;;;11.03;;
19828;SDS011;10075;50.924;4.396;2023-04-24T04:11:07;18.17;;;11.17;;
19828;SDS011;10075;50.924;4.396;2023-04-24T04:13:34;17.50;;;11.60;;
19828;SDS011;10075;50.924;4.396;2023-04-24T04:16:03;23.50;;;13.37;;
19828;SDS011;10075;50.924;4.396;2023-04-24T04:18:30;15.33;;;10.47;;
19828;SDS011;10075;50.924;4.396;2023-04-24T04:20:57;15.40;;;9.00;;
19828;SDS011;10075;50.924;4.396;2023-04-24T04:23:26;17.60;;;10.40;;
19828;SDS011;10075;50.924;4.396;2023-04-24T04:25:53;13.23;;;9.37;;
19828;SDS011;10075;50.924;4.396;2023-04-24T04:28:20;21.47;;;11.60;;
19828;SDS011;10075;50.924;4.396;2023-04-24T04:30:47;21.60;;;13.50;;
19828;SDS011;10075;50.924;4.396;2023-04-24T04:33:15;25.90;;;14.73;;
19828;SDS011;10075;50.924;4.396;2023-04-24T04:35:43;26.97;;;14.17;;
19828;SDS011;10075;50.924;4.396;2023-04-24T04:38:13;24.73;;;14.87;;
19828;SDS011;10075;50.924;4.396;2023-04-24T04:40:40;22.43;;;14.50;;
19828;SDS011;10075;50.924;4.396;2023-04-24T04:43:07;25.57;;;15.83;;
19828;SDS011;10075;50.924;4.396;2023-04-24T04:45:35;26.63;;;15.20;;
19828;SDS011;10075;50.924;4.396;2023-04-24T04:48:04;24.73;;;15.63;;
19828;SDS011;10075;50.924;4.396;2023-04-24T04:50:34;30.80;;;17.10;;
19828;SDS011;10075;50.924;4.396;2023-04-24T04:53:01;24.20;;;14.23;;
19828;SDS011;10075;50.924;4.396;2023-04-24T04:55:28;35.17;;;18.60;;
19828;SDS011;10075;50.924;4.396;2023-04-24T04:57:55;29.10;;;16.03;;
19828;SDS011;10075;50.924;4.396;2023-04-24T05:00:22;29.63;;;17.87;;
19828;SDS011;10075;50.924;4.396;2023-04-24T05:02:50;28.03;;;17.17;;
19828;SDS011;10075;50.924;4.396;2023-04-24T05:05:17;31.63;;;18.03;;
19828;SDS011;10075;50.924;4.396;2023-04-24T05:07:46;30.57;;;18.90;;
19828;SDS011;10075;50.924;4.396;2023-04-24T05:10:13;32.37;;;17.33;;
19828;SDS011;10075;50.924;4.396;2023-04-24T05:12:40;36.80;;;19.43;;
19828;SDS011;10075;50.924;4.396;2023-04-24T05:15:07;34.90;;;18.83;;
19828;SDS011;10075;50.924;4.396;2023-04-24T05:17:34;36.33;;;19.20;;
19828;SDS011;10075;50.924;4.396;2023-04-24T05:20:01;36.93;;;17.93;;
19828;SDS011;10075;50.924;4.396;2023-04-24T05:22:30;29.57;;;15.80;;
19828;SDS011;10075;50.924;4.396;2023-04-24T05:24:58;31.87;;;19.23;;
19828;SDS011;10075;50.924;4.396;2023-04-24T05:27:25;33.67;;;18.60;;
19828;SDS011;10075;50.924;4.396;2023-04-24T05:29:52;30.27;;;18.07;;
19828;SDS011;10075;50.924;4.396;2023-04-24T05:32:20;27.07;;;16.10;;
19828;SDS011;10075;50.924;4.396;2023-04-24T05:34:47;27.50;;;14.83;;
19828;SDS011;10075;50.924;4.396;2023-04-24T05:37:14;30.50;;;18.30;;
19828;SDS011;10075;50.924;4.396;2023-04-24T05:39:40;27.90;;;17.57;;
19828;SDS011;10075;50.924;4.396;2023-04-24T05:42:09;28.03;;;16.80;;
19828;SDS011;10075;50.924;4.396;2023-04-24T05:44:36;40.07;;;17.20;;
19828;SDS011;10075;50.924;4.396;2023-04-24T05:47:03;31.67;;;16.77;;
19828;SDS011;10075;50.924;4.396;2023-04-24T05:49:30;30.43;;;17.23;;
19828;SDS011;10075;50.924;4.396;2023-04-24T05:51:57;37.07;;;15.83;;
19828;SDS011;10075;50.924;4.396;2023-04-24T05:54:24;26.90;;;12.30;;
19828;SDS011;10075;50.924;4.396;2023-04-24T05:56:51;32.80;;;18.13;;
19828;SDS011;10075;50.924;4.396;2023-04-24T05:59:20;34.50;;;17.53;;
19828;SDS011;10075;50.924;4.396;2023-04-24T06:01:48;24.70;;;15.97;;
19828;SDS011;10075;50.924;4.396;2023-04-24T06:04:15;36.87;;;19.67;;
19828;SDS011;10075;50.924;4.396;2023-04-24T06:06:41;34.10;;;19.37;;
19828;SDS011;10075;50.924;4.396;2023-04-24T06:09:08;38.37;;;19.33;;
19828;SDS011;10075;50.924;4.396;2023-04-24T06:11:35;27.10;;;16.27;;
19828;SDS011;10075;50.924;4.396;2023-04-24T06:14:03;28.23;;;14.67;;
19828;SDS011;10075;50.924;4.396;2023-04-24T06:16:31;23.27;;;14.60;;
19828;SDS011;10075;50.924;4.396;2023-04-24T06:18:58;24.57;;;13.87;;
19828;SDS011;10075;50.924;4.396;2023-04-24T06:21:25;35.60;;;16.73;;
19828;SDS011;10075;50.924;4.396;2023-04-24T06:23:52;29.67;;;16.83;;
19828;SDS011;10075;50.924;4.396;2023-04-24T06:26:21;20.73;;;12.63;;
19828;SDS011;10075;50.924;4.396;2023-04-24T06:28:50;29.70;;;14.97;;
19828;SDS011;10075;50.924;4.396;2023-04-24T06:31:18;27.43;;;16.27;;
19828;SDS011;10075;50.924;4.396;2023-04-24T06:33:47;29.50;;;14.60;;
19828;SDS011;10075;50.924;4.396;2023-04-24T06:36:15;33.73;;;17.57;;
19828;SDS011;10075;50.924;4.396;2023-04-24T06:38:45;23.57;;;12.87;;
19828;SDS011;10075;50.924;4.396;2023-04-24T06:41:12;32.47;;;17.77;;
19828;SDS011;10075;50.924;4.396;2023-04-24T06:43:39;35.40;;;20.57;;
19828;SDS011;10075;50.924;4.396;2023-04-24T06:46:06;41.90;;;21.93;;
19828;SDS011;10075;50.924;4.396;2023-04-24T06:48:33;37.40;;;17.37;;
19828;SDS011;10075;50.924;4.396;2023-04-24T06:51:02;40.27;;;21.90;;
19828;SDS011;10075;50.924;4.396;2023-04-24T06:53:29;41.60;;;20.97;;
19828;SDS011;10075;50.924;4.396;2023-04-24T06:55:56;33.27;;;17.90;;
19828;SDS011;10075;50.924;4.396;2023-04-24T06:58:24;35.97;;;19.80;;
19828;SDS011;10075;50.924;4.396;2023-04-24T07:00:51;33.73;;;18.80;;
19828;SDS011;10075;50.924;4.396;2023-04-24T07:03:18;30.53;;;18.27;;
19828;SDS011;10075;50.924;4.396;2023-04-24T07:05:45;47.60;;;25.07;;
19828;SDS011;10075;50.924;4.396;2023-04-24T07:08:14;44.33;;;21.60;;
19828;SDS011;10075;50.924;4.396;2023-04-24T07:10:42;46.53;;;24.23;;
19828;SDS011;10075;50.924;4.396;2023-04-24T07:13:09;45.33;;;25.07;;
19828;SDS011;10075;50.924;4.396;2023-04-24T07:15:36;43.33;;;20.10;;
19828;SDS011;10075;50.924;4.396;2023-04-24T07:18:03;52.17;;;25.50;;
19828;SDS011;10075;50.924;4.396;2023-04-24T07:20:30;39.53;;;23.77;;
19828;SDS011;10075;50.924;4.396;2023-04-24T07:22:58;44.20;;;22.60;;
19828;SDS011;10075;50.924;4.396;2023-04-24T07:25:26;43.37;;;21.90;;
19828;SDS011;10075;50.924;4.396;2023-04-24T07:27:53;43.70;;;19.93;;
19828;SDS011;10075;50.924;4.396;2023-04-24T07:30:20;37.00;;;19.77;;
19828;SDS011;10075;50.924;4.396;2023-04-24T07:32:47;27.83;;;17.60;;
19828;SDS011;10075;50.924;4.396;2023-04-24T07:35:15;34.00;;;19.07;;
19828;SDS011;10075;50.924;4.396;2023-04-24T07:37:42;29.57;;;14.63;;
19828;SDS011;10075;50.924;4.396;2023-04-24T07:40:11;30.73;;;16.43;;
19828;SDS011;10075;50.924;4.396;2023-04-24T07:42:39;20.60;;;11.40;;
19828;SDS011;10075;50.924;4.396;2023-04-24T07:45:06;29.37;;;14.83;;
19828;SDS011;10075;50.924;4.396;2023-04-24T07:47:34;27.70;;;15.57;;
19828;SDS011;10075;50.924;4.396;2023-04-24T07:50:02;22.67;;;13.10;;
19828;SDS011;10075;50.924;4.396;2023-04-24T07:52:29;27.43;;;15.23;;
19828;SDS011;10075;50.924;4.396;2023-04-24T07:54:56;27.50;;;15.03;;
19828;SDS011;10075;50.924;4.396;2023-04-24T07:57:25;23.37;;;12.20;;
19828;SDS011;10075;50.924;4.396;2023-04-24T07:59:53;30.67;;;14.13;;
19828;SDS011;10075;50.924;4.396;2023-04-24T08:02:20;26.10;;;13.83;;
19828;SDS011;10075;50.924;4.396;2023-04-24T08:04:51;23.40;;;12.50;;
19828;SDS011;10075;50.924;4.396;2023-04-24T08:07:19;19.50;;;10.50;;
19828;SDS011;10075;50.924;4.396;2023-04-24T08:09:46;40.50;;;11.93;;
19828;SDS011;10075;50.924;4.396;2023-04-24T08:12:13;16.00;;;8.43;;
19828;SDS011;10075;50.924;4.396;2023-04-24T08:14:40;20.30;;;12.27;;
19828;SDS011;10075;50.924;4.396;2023-04-24T08:17:08;25.20;;;13.17;;
19828;SDS011;10075;50.924;4.396;2023-04-24T08:19:35;25.37;;;13.03;;
19828;SDS011;10075;50.924;4.396;2023-04-24T08:22:02;29.67;;;12.43;;
19828;SDS011;10075;50.924;4.396;2023-04-24T08:24:30;20.03;;;9.10;;
19828;SDS011;10075;50.924;4.396;2023-04-24T08:26:57;23.17;;;11.47;;
19828;SDS011;10075;50.924;4.396;2023-04-24T08:29:24;20.93;;;8.47;;
19828;SDS011;10075;50.924;4.396;2023-04-24T08:31:51;20.50;;;10.03;;
19828;SDS011;10075;50.924;4.396;2023-04-24T08:34:21;17.73;;;8.93;;
19828;SDS011;10075;50.924;4.396;2023-04-24T08:36:48;17.00;;;7.50;;
19828;SDS011;10075;50.924;4.396;2023-04-24T08:39:15;21.07;;;8.67;;
19828;SDS011;10075;50.924;4.396;2023-04-24T08:41:44;18.50;;;7.27;;
19828;SDS011;10075;50.924;4.396;2023-04-24T08:44:12;17.20;;;7.00;;
19828;SDS011;10075;50.924;4.396;2023-04-24T08:46:40;20.60;;;8.47;;
19828;SDS011;10075;50.924;4.396;2023-04-24T08:49:09;15.83;;;7.73;;
19828;SDS011;10075;50.924;4.396;2023-04-24T08:51:37;13.83;;;5.43;;
19828;SDS011;10075;50.924;4.396;2023-04-24T08:54:06;16.27;;;6.23;;
19828;SDS011;10075;50.924;4.396;2023-04-24T08:56:33;16.90;;;6.07;;
19828;SDS011;10075;50.924;4.396;2023-04-24T08:59:04;16.60;;;6.53;;
19828;SDS011;10075;50.924;4.396;2023-04-24T09:01:32;14.73;;;6.47;;
19828;SDS011;10075;50.924;4.396;2023-04-24T09:04:01;10.87;;;4.47;;
19828;SDS011;10075;50.924;4.396;2023-04-24T09:06:29;15.77;;;5.63;;
19828;SDS011;10075;50.924;4.396;2023-04-24T09:09:00;15.00;;;6.37;;
19828;SDS011;10075;50.924;4.396;2023-04-24T09:11:29;15.40;;;6.43;;
19828;SDS011;10075;50.924;4.396;2023-04-24T09:13:57;13.00;;;6.37;;
19828;SDS011;10075;50.924;4.396;2023-04-24T09:16:24;12.97;;;5.43;;
19828;SDS011;10075;50.924;4.396;2023-04-24T09:18:52;11.53;;;5.27;;
19828;SDS011;10075;50.924;4.396;2023-04-24T09:21:20;11.23;;;5.80;;
19828;SDS011;10075;50.924;4.396;2023-04-24T09:23:57;11.23;;;5.67;;
19828;SDS011;10075;50.924;4.396;2023-04-24T09:26:27;13.60;;;5.93;;
19828;SDS011;10075;50.924;4.396;2023-04-24T09:28:57;10.93;;;5.30;;
19828;SDS011;10075;50.924;4.396;2023-04-24T09:31:26;10.97;;;3.70;;
19828;SDS011;10075;50.924;4.396;2023-04-24T09:33:55;10.77;;;3.40;;
19828;SDS011;10075;50.924;4.396;2023-04-24T09:36:29;9.83;;;4.33;;
19828;SDS011;10075;50.924;4.396;2023-04-24T09:38:58;9.80;;;4.30;;
19828;SDS011;10075;50.924;4.396;2023-04-24T09:41:27;10.93;;;3.83;;
19828;SDS011;10075;50.924;4.396;2023-04-24T09:43:55;9.47;;;4.03;;
19828;SDS011;10075;50.924;4.396;2023-04-24T09:46:29;10.27;;;4.07;;
19828;SDS011;10075;50.924;4.396;2023-04-24T09:48:57;8.00;;;3.63;;
19828;SDS011;10075;50.924;4.396;2023-04-24T09:51:33;9.37;;;4.50;;
19828;SDS011;10075;50.924;4.396;2023-04-24T09:54:01;9.47;;;4.13;;
19828;SDS011;10075;50.924;4.396;2023-04-24T09:56:33;10.00;;;4.90;;
19828;SDS011;10075;50.924;4.396;2023-04-24T09:59:06;11.10;;;4.53;;
19828;SDS011;10075;50.924;4.396;2023-04-24T10:01:33;10.17;;;3.67;;
19828;SDS011;10075;50.924;4.396;2023-04-24T10:04:01;7.23;;;4.87;;
19828;SDS011;10075;50.924;4.396;2023-04-24T10:06:32;8.40;;;4.33;;
19828;SDS011;10075;50.924;4.396;2023-04-24T10:09:01;8.77;;;3.88;;
19828;SDS011;10075;50.924;4.396;2023-04-24T10:11:28;8.90;;;3.27;;
19828;SDS011;10075;50.924;4.396;2023-04-24T10:13:58;10.10;;;4.07;;
19828;SDS011;10075;50.924;4.396;2023-04-24T10:16:25;10.30;;;3.60;;
19828;SDS011;10075;50.924;4.396;2023-04-24T10:18:53;12.23;;;4.67;;
19828;SDS011;10075;50.924;4.396;2023-04-24T10:21:21;9.80;;;4.10;;
19828;SDS011;10075;50.924;4.396;2023-04-24T10:23:49;9.88;;;3.67;;
19828;SDS011;10075;50.924;4.396;2023-04-24T10:26:17;8.52;;;4.05;;
19828;SDS011;10075;50.924;4.396;2023-04-24T10:28:47;9.53;;;4.60;;
19828;SDS011;10075;50.924;4.396;2023-04-24T10:31:16;13.17;;;4.23;;
19828;SDS011;10075;50.924;4.396;2023-04-24T10:33:44;10.65;;;4.20;;
19828;SDS011;10075;50.924;4.396;2023-04-24T10:36:12;8.97;;;4.60;;
19828;SDS011;10075;50.924;4.396;2023-04-24T10:38:41;8.03;;;4.53;;
19828;SDS011;10075;50.924;4.396;2023-04-24T10:41:10;8.82;;;4.53;;
19828;SDS011;10075;50.924;4.396;2023-04-24T10:43:41;10.27;;;4.07;;
19828;SDS011;10075;50.924;4.396;2023-04-24T10:46:08;10.70;;;4.60;;
19828;SDS011;10075;50.924;4.396;2023-04-24T10:48:41;6.30;;;2.63;;
19828;SDS011;10075;50.924;4.396;2023-04-24T10:51:10;11.07;;;4.35;;
19828;SDS011;10075;50.924;4.396;2023-04-24T10:53:39;7.35;;;3.28;;
19828;SDS011;10075;50.924;4.396;2023-04-24T10:56:06;6.90;;;3.87;;
19828;SDS011;10075;50.924;4.396;2023-04-24T10:58:36;9.93;;;4.53;;
19828;SDS011;10075;50.924;4.396;2023-04-24T11:01:05;9.13;;;4.17;;
19828;SDS011;10075;50.924;4.396;2023-04-24T11:03:33;9.55;;;3.13;;
19828;SDS011;10075;50.924;4.396;2023-04-24T11:06:04;10.98;;;4.40;;
19828;SDS011;10075;50.924;4.396;2023-04-24T11:08:32;8.10;;;3.38;;
19828;SDS011;10075;50.924;4.396;2023-04-24T11:11:08;10.05;;;4.00;;
19828;SDS011;10075;50.924;4.396;2023-04-24T11:16:33;7.83;;;3.53;;
19828;SDS011;10075;50.924;4.396;2023-04-24T11:19:07;9.23;;;4.00;;
19828;SDS011;10075;50.924;4.396;2023-04-24T11:21:41;6.97;;;3.53;;
19828;SDS011;10075;50.924;4.396;2023-04-24T11:24:24;5.95;;;3.85;;
19828;SDS011;10075;50.924;4.396;2023-04-24T11:26:57;6.00;;;3.97;;
19828;SDS011;10075;50.924;4.396;2023-04-24T11:29:39;6.03;;;3.53;;
19828;SDS011;10075;50.924;4.396;2023-04-24T11:32:17;7.30;;;3.47;;
19828;SDS011;10075;50.924;4.396;2023-04-24T11:34:54;7.37;;;4.17;;
19828;SDS011;10075;50.924;4.396;2023-04-24T11:37:23;9.37;;;4.60;;
19828;SDS011;10075;50.924;4.396;2023-04-24T11:39:55;9.15;;;4.22;;
19828;SDS011;10075;50.924;4.396;2023-04-24T11:42:26;5.72;;;3.53;;
19828;SDS011;10075;50.924;4.396;2023-04-24T11:44:55;10.18;;;4.50;;
19828;SDS011;10075;50.924;4.396;2023-04-24T11:47:28;7.97;;;4.90;;
19828;SDS011;10075;50.924;4.396;2023-04-24T11:49:57;8.87;;;4.53;;
19828;SDS011;10075;50.924;4.396;2023-04-24T11:52:26;8.43;;;5.15;;
19828;SDS011;10075;50.924;4.396;2023-04-24T11:54:53;8.97;;;4.03;;
19828;SDS011;10075;50.924;4.396;2023-04-24T11:57:21;8.52;;;4.03;;
19828;SDS011;10075;50.924;4.396;2023-04-24T11:59:52;7.50;;;4.65;;
19828;SDS011;10075;50.924;4.396;2023-04-24T12:02:21;7.67;;;4.70;;
19828;SDS011;10075;50.924;4.396;2023-04-24T12:04:49;8.88;;;4.35;;
19828;SDS011;10075;50.924;4.396;2023-04-24T12:07:16;7.32;;;4.15;;
19828;SDS011;10075;50.924;4.396;2023-04-24T12:09:45;8.60;;;4.78;;
19828;SDS011;10075;50.924;4.396;2023-04-24T12:12:14;6.82;;;3.65;;
19828;SDS011;10075;50.924;4.396;2023-04-24T12:14:43;6.60;;;4.47;;
19828;SDS011;10075;50.924;4.396;2023-04-24T12:17:12;8.10;;;4.15;;
19828;SDS011;10075;50.924;4.396;2023-04-24T12:19:44;7.63;;;3.63;;
19828;SDS011;10075;50.924;4.396;2023-04-24T12:22:12;10.07;;;4.93;;
19828;SDS011;10075;50.924;4.396;2023-04-24T12:27:24;7.70;;;3.88;;
19828;SDS011;10075;50.924;4.396;2023-04-24T12:29:52;9.57;;;3.72;;
19828;SDS011;10075;50.924;4.396;2023-04-24T12:32:20;8.77;;;4.63;;
19828;SDS011;10075;50.924;4.396;2023-04-24T12:34:47;8.20;;;4.00;;
19828;SDS011;10075;50.924;4.396;2023-04-24T12:37:15;6.75;;;4.20;;
19828;SDS011;10075;50.924;4.396;2023-04-24T12:39:44;9.10;;;5.00;;
19828;SDS011;10075;50.924;4.396;2023-04-24T12:42:26;8.52;;;4.68;;
19828;SDS011;10075;50.924;4.396;2023-04-24T12:45:00;7.45;;;4.20;;
19828;SDS011;10075;50.924;4.396;2023-04-24T12:47:32;7.38;;;3.47;;
19828;SDS011;10075;50.924;4.396;2023-04-24T12:50:01;4.82;;;2.97;;
19828;SDS011;10075;50.924;4.396;2023-04-24T12:52:29;5.38;;;3.10;;
19828;SDS011;10075;50.924;4.396;2023-04-24T12:54:58;7.57;;;3.72;;
19828;SDS011;10075;50.924;4.396;2023-04-24T12:57:28;6.85;;;3.20;;
19828;SDS011;10075;50.924;4.396;2023-04-24T12:59:56;7.53;;;3.67;;
19828;SDS011;10075;50.924;4.396;2023-04-24T13:02:24;5.80;;;3.27;;
19828;SDS011;10075;50.924;4.396;2023-04-24T13:04:53;5.72;;;2.75;;
19828;SDS011;10075;50.924;4.396;2023-04-24T13:07:20;6.07;;;3.00;;
19828;SDS011;10075;50.924;4.396;2023-04-24T13:09:51;4.90;;;3.20;;
19828;SDS011;10075;50.924;4.396;2023-04-24T13:12:19;4.25;;;2.40;;
19828;SDS011;10075;50.924;4.396;2023-04-24T13:14:48;6.82;;;2.85;;
19828;SDS011;10075;50.924;4.396;2023-04-24T13:17:15;3.28;;;2.05;;
19828;SDS011;10075;50.924;4.396;2023-04-24T13:19:43;6.30;;;2.63;;
19828;SDS011;10075;50.924;4.396;2023-04-24T13:22:11;5.97;;;2.38;;
19828;SDS011;10075;50.924;4.396;2023-04-24T13:24:39;5.28;;;2.30;;
19828;SDS011;10075;50.924;4.396;2023-04-24T13:27:07;4.80;;;2.13;;
19828;SDS011;10075;50.924;4.396;2023-04-24T13:29:36;4.65;;;2.15;;
19828;SDS011;10075;50.924;4.396;2023-04-24T13:32:05;6.13;;;1.85;;
19828;SDS011;10075;50.924;4.396;2023-04-24T13:34:35;5.95;;;2.05;;
19828;SDS011;10075;50.924;4.396;2023-04-24T13:37:03;5.45;;;2.60;;
19828;SDS011;10075;50.924;4.396;2023-04-24T13:39:31;5.78;;;3.03;;
19828;SDS011;10075;50.924;4.396;2023-04-24T13:41:58;7.15;;;2.40;;
19828;SDS011;10075;50.924;4.396;2023-04-24T13:44:27;7.25;;;2.17;;
19828;SDS011;10075;50.924;4.396;2023-04-24T13:46:57;4.90;;;2.20;;
19828;SDS011;10075;50.924;4.396;2023-04-24T13:49:24;5.20;;;2.33;;
19828;SDS011;10075;50.924;4.396;2023-04-24T13:51:52;4.68;;;2.13;;
19828;SDS011;10075;50.924;4.396;2023-04-24T13:54:20;5.80;;;2.28;;
19828;SDS011;10075;50.924;4.396;2023-04-24T13:56:48;4.82;;;2.88;;
19828;SDS011;10075;50.924;4.396;2023-04-24T13:59:15;3.70;;;1.83;;
19828;SDS011;10075;50.924;4.396;2023-04-24T14:01:42;6.28;;;2.28;;
19828;SDS011;10075;50.924;4.396;2023-04-24T14:04:12;4.97;;;2.40;;
19828;SDS011;10075;50.924;4.396;2023-04-24T14:06:39;4.38;;;2.15;;
19828;SDS011;10075;50.924;4.396;2023-04-24T14:09:06;7.13;;;2.33;;
19828;SDS011;10075;50.924;4.396;2023-04-24T14:11:33;3.33;;;1.67;;
19828;SDS011;10075;50.924;4.396;2023-04-24T14:14:00;4.22;;;2.00;;
19828;SDS011;10075;50.924;4.396;2023-04-24T14:16:28;8.02;;;1.92;;
19828;SDS011;10075;50.924;4.396;2023-04-24T14:18:55;9.25;;;2.00;;
19828;SDS011;10075;50.924;4.396;2023-04-24T14:21:23;5.93;;;2.00;;
19828;SDS011;10075;50.924;4.396;2023-04-24T14:23:51;2.15;;;1.08;;
19828;SDS011;10075;50.924;4.396;2023-04-24T14:26:18;3.08;;;1.88;;
19828;SDS011;10075;50.924;4.396;2023-04-24T14:28:46;3.85;;;1.63;;
19828;SDS011;10075;50.924;4.396;2023-04-24T14:31:13;7.20;;;1.60;;
19828;SDS011;10075;50.924;4.396;2023-04-24T14:33:41;2.85;;;1.40;;
19828;SDS011;10075;50.924;4.396;2023-04-24T14:36:07;2.22;;;1.40;;
19828;SDS011;10075;50.924;4.396;2023-04-24T14:38:36;3.90;;;1.85;;
19828;SDS011;10075;50.924;4.396;2023-04-24T14:41:03;5.53;;;1.48;;